Terminal Aerodrome Forecast
Issued by NWS

Home | Current Version | Previous Version | Text Only | Print | Product List | Glossary Off
Versions: 1 2 3 4 5 6 7 8 9 10 11 12 13 14 15 16 17 18 19 20 21 22 23

000
FTUS43 KBIS 252300
TAFDIK
TAF
KDIK 252320Z 2600/2624 31009KT P6SM SCT040
     FM260500 14004KT P6SM BKN120
     FM260900 16005KT 2SM -SN OVC009
     FM261400 12005KT P6SM BKN013
     FM262000 05005KT P6SM BKN090=

USA.gov is the U.S. government's official web portal to all federal, state and local government web resources and services.